sensor_id;sensor_type;location;lat;lon;timestamp;temperature;humidity
56374;DHT22;58212;47.034;7.376;2022-12-29T00:00:05;5.20;99.90
56374;DHT22;58212;47.034;7.376;2022-12-29T00:02:40;5.40;99.90
56374;DHT22;58212;47.034;7.376;2022-12-29T00:05:12;5.60;99.90
56374;DHT22;58212;47.034;7.376;2022-12-29T00:07:42;5.80;99.90
56374;DHT22;58212;47.034;7.376;2022-12-29T00:10:34;6.10;99.90
56374;DHT22;58212;47.034;7.376;2022-12-29T00:13:02;6.40;99.90
56374;DHT22;58212;47.034;7.376;2022-12-29T00:15:50;6.60;99.90
56374;DHT22;58212;47.034;7.376;2022-12-29T00:18:17;6.90;99.90
56374;DHT22;58212;47.034;7.376;2022-12-29T00:20:48;6.90;99.90
56374;DHT22;58212;47.034;7.376;2022-12-29T00:23:44;7.10;99.90
56374;DHT22;58212;47.034;7.376;2022-12-29T00:26:29;7.10;99.90
56374;DHT22;58212;47.034;7.376;2022-12-29T00:29:38;7.20;99.90
56374;DHT22;58212;47.034;7.376;2022-12-29T00:32:36;7.40;99.90
56374;DHT22;58212;47.034;7.376;2022-12-29T00:35:25;7.50;99.90
56374;DHT22;58212;47.034;7.376;2022-12-29T00:37:55;7.60;99.90
56374;DHT22;58212;47.034;7.376;2022-12-29T00:40:41;7.70;99.90
56374;DHT22;58212;47.034;7.376;2022-12-29T00:43:27;7.80;99.90
56374;DHT22;58212;47.034;7.376;2022-12-29T00:46:15;7.90;99.90
56374;DHT22;58212;47.034;7.376;2022-12-29T00:48:44;7.90;99.90
56374;DHT22;58212;47.034;7.376;2022-12-29T00:51:54;7.90;99.90
56374;DHT22;58212;47.034;7.376;2022-12-29T00:54:23;7.90;99.90
56374;DHT22;58212;47.034;7.376;2022-12-29T00:56:53;7.90;99.90
56374;DHT22;58212;47.034;7.376;2022-12-29T00:59:22;8.00;99.90
56374;DHT22;58212;47.034;7.376;2022-12-29T01:01:51;8.20;99.90
56374;DHT22;58212;47.034;7.376;2022-12-29T01:04:21;8.20;99.90
56374;DHT22;58212;47.034;7.376;2022-12-29T01:06:50;8.10;99.90
56374;DHT22;58212;47.034;7.376;2022-12-29T01:09:18;8.20;99.90
56374;DHT22;58212;47.034;7.376;2022-12-29T01:12:06;8.30;99.90
56374;DHT22;58212;47.034;7.376;2022-12-29T01:14:34;8.20;99.90
56374;DHT22;58212;47.034;7.376;2022-12-29T01:17:02;8.20;99.90
56374;DHT22;58212;47.034;7.376;2022-12-29T01:19:34;8.30;99.90
56374;DHT22;58212;47.034;7.376;2022-12-29T01:22:05;8.30;99.90
56374;DHT22;58212;47.034;7.376;2022-12-29T01:24:36;8.30;99.90
56374;DHT22;58212;47.034;7.376;2022-12-29T01:27:04;8.30;99.90
56374;DHT22;58212;47.034;7.376;2022-12-29T01:29:31;8.30;99.90
56374;DHT22;58212;47.034;7.376;2022-12-29T01:31:58;8.30;99.90
56374;DHT22;58212;47.034;7.376;2022-12-29T01:34:26;8.40;99.90
56374;DHT22;58212;47.034;7.376;2022-12-29T01:36:55;8.40;99.90
56374;DHT22;58212;47.034;7.376;2022-12-29T01:39:24;8.40;99.90
56374;DHT22;58212;47.034;7.376;2022-12-29T01:41:51;8.40;99.90
56374;DHT22;58212;47.034;7.376;2022-12-29T01:44:53;8.50;99.90
56374;DHT22;58212;47.034;7.376;2022-12-29T01:47:33;8.50;99.90
56374;DHT22;58212;47.034;7.376;2022-12-29T01:50:30;8.40;99.90
56374;DHT22;58212;47.034;7.376;2022-12-29T01:53:01;8.50;99.90
56374;DHT22;58212;47.034;7.376;2022-12-29T01:55:32;8.50;99.90
56374;DHT22;58212;47.034;7.376;2022-12-29T01:58:04;8.50;99.90
56374;DHT22;58212;47.034;7.376;2022-12-29T02:00:32;8.50;99.90
56374;DHT22;58212;47.034;7.376;2022-12-29T02:03:00;8.60;99.90
56374;DHT22;58212;47.034;7.376;2022-12-29T02:05:33;8.60;99.90
56374;DHT22;58212;47.034;7.376;2022-12-29T02:08:04;8.60;99.90
56374;DHT22;58212;47.034;7.376;2022-12-29T02:10:35;8.60;99.90
56374;DHT22;58212;47.034;7.376;2022-12-29T02:13:02;8.50;99.90
56374;DHT22;58212;47.034;7.376;2022-12-29T02:15:38;8.50;99.90
56374;DHT22;58212;47.034;7.376;2022-12-29T02:18:22;8.60;99.90
56374;DHT22;58212;47.034;7.376;2022-12-29T02:24:10;8.70;99.90
56374;DHT22;58212;47.034;7.376;2022-12-29T02:30:15;8.70;99.90
56374;DHT22;58212;47.034;7.376;2022-12-29T02:32:52;8.70;99.90
56374;DHT22;58212;47.034;7.376;2022-12-29T02:35:28;8.70;99.90
56374;DHT22;58212;47.034;7.376;2022-12-29T02:38:04;8.70;99.90
56374;DHT22;58212;47.034;7.376;2022-12-29T02:40:40;8.70;99.90
56374;DHT22;58212;47.034;7.376;2022-12-29T02:43:21;8.70;99.90
56374;DHT22;58212;47.034;7.376;2022-12-29T02:45:54;8.70;99.90
56374;DHT22;58212;47.034;7.376;2022-12-29T02:48:29;8.70;99.90
56374;DHT22;58212;47.034;7.376;2022-12-29T02:51:04;8.70;99.90
56374;DHT22;58212;47.034;7.376;2022-12-29T02:53:36;8.70;99.90
56374;DHT22;58212;47.034;7.376;2022-12-29T02:56:24;8.80;99.90
56374;DHT22;58212;47.034;7.376;2022-12-29T02:58:52;8.80;99.90
56374;DHT22;58212;47.034;7.376;2022-12-29T03:01:27;8.80;99.90
56374;DHT22;58212;47.034;7.376;2022-12-29T03:04:31;8.80;99.90
56374;DHT22;58212;47.034;7.376;2022-12-29T03:07:37;8.80;99.90
56374;DHT22;58212;47.034;7.376;2022-12-29T03:10:44;8.80;99.90
56374;DHT22;58212;47.034;7.376;2022-12-29T03:13:23;8.80;99.90
56374;DHT22;58212;47.034;7.376;2022-12-29T03:16:20;8.80;99.90
56374;DHT22;58212;47.034;7.376;2022-12-29T03:18:55;8.80;99.90
56374;DHT22;58212;47.034;7.376;2022-12-29T03:21:31;8.80;99.90
56374;DHT22;58212;47.034;7.376;2022-12-29T03:24:20;8.80;99.90
56374;DHT22;58212;47.034;7.376;2022-12-29T03:26:49;8.70;99.90
56374;DHT22;58212;47.034;7.376;2022-12-29T03:29:19;8.70;99.90
56374;DHT22;58212;47.034;7.376;2022-12-29T03:31:49;8.60;99.90
56374;DHT22;58212;47.034;7.376;2022-12-29T03:34:20;8.80;99.90
56374;DHT22;58212;47.034;7.376;2022-12-29T03:36:53;8.80;99.90
56374;DHT22;58212;47.034;7.376;2022-12-29T03:39:23;8.80;99.90
56374;DHT22;58212;47.034;7.376;2022-12-29T03:41:54;8.90;99.90
56374;DHT22;58212;47.034;7.376;2022-12-29T03:44:32;9.00;99.90
56374;DHT22;58212;47.034;7.376;2022-12-29T03:47:03;9.00;99.90
56374;DHT22;58212;47.034;7.376;2022-12-29T03:49:32;8.90;99.90
56374;DHT22;58212;47.034;7.376;2022-12-29T03:52:00;8.90;99.90
56374;DHT22;58212;47.034;7.376;2022-12-29T03:54:28;9.00;99.90
56374;DHT22;58212;47.034;7.376;2022-12-29T03:56:56;9.10;99.90
56374;DHT22;58212;47.034;7.376;2022-12-29T03:59:34;9.10;99.90
56374;DHT22;58212;47.034;7.376;2022-12-29T04:02:05;9.20;99.90
56374;DHT22;58212;47.034;7.376;2022-12-29T04:04:33;9.10;99.90
56374;DHT22;58212;47.034;7.376;2022-12-29T04:07:03;9.10;99.90
56374;DHT22;58212;47.034;7.376;2022-12-29T04:09:31;9.20;99.90
56374;DHT22;58212;47.034;7.376;2022-12-29T04:12:00;9.30;99.90
56374;DHT22;58212;47.034;7.376;2022-12-29T04:14:27;9.30;99.90
56374;DHT22;58212;47.034;7.376;2022-12-29T04:16:57;9.30;99.90
56374;DHT22;58212;47.034;7.376;2022-12-29T04:19:24;9.40;99.90
56374;DHT22;58212;47.034;7.376;2022-12-29T04:21:51;9.40;99.90
56374;DHT22;58212;47.034;7.376;2022-12-29T04:24:23;9.50;99.90
56374;DHT22;58212;47.034;7.376;2022-12-29T04:26:50;9.40;99.90
56374;DHT22;58212;47.034;7.376;2022-12-29T04:29:35;9.40;99.90
56374;DHT22;58212;47.034;7.376;2022-12-29T04:32:10;9.50;99.90
56374;DHT22;58212;47.034;7.376;2022-12-29T04:34:44;9.50;99.90
56374;DHT22;58212;47.034;7.376;2022-12-29T04:37:11;9.50;99.90
56374;DHT22;58212;47.034;7.376;2022-12-29T04:39:40;9.50;99.90
56374;DHT22;58212;47.034;7.376;2022-12-29T04:42:08;9.50;99.90
56374;DHT22;58212;47.034;7.376;2022-12-29T04:44:35;9.60;99.90
56374;DHT22;58212;47.034;7.376;2022-12-29T04:47:11;9.50;99.90
56374;DHT22;58212;47.034;7.376;2022-12-29T04:49:48;9.40;99.90
56374;DHT22;58212;47.034;7.376;2022-12-29T04:52:36;9.40;99.90
56374;DHT22;58212;47.034;7.376;2022-12-29T04:55:05;9.30;99.90
56374;DHT22;58212;47.034;7.376;2022-12-29T04:57:33;9.50;99.90
56374;DHT22;58212;47.034;7.376;2022-12-29T05:00:01;9.40;99.90
56374;DHT22;58212;47.034;7.376;2022-12-29T05:02:28;9.40;99.90
56374;DHT22;58212;47.034;7.376;2022-12-29T05:04:57;9.30;99.90
56374;DHT22;58212;47.034;7.376;2022-12-29T05:07:26;9.30;99.90
56374;DHT22;58212;47.034;7.376;2022-12-29T05:09:55;9.20;99.90
56374;DHT22;58212;47.034;7.376;2022-12-29T05:12:24;9.30;99.90
56374;DHT22;58212;47.034;7.376;2022-12-29T05:14:57;9.30;99.90
56374;DHT22;58212;47.034;7.376;2022-12-29T05:17:24;9.30;99.90
56374;DHT22;58212;47.034;7.376;2022-12-29T05:19:52;9.20;99.90
56374;DHT22;58212;47.034;7.376;2022-12-29T05:22:20;9.30;99.90
56374;DHT22;58212;47.034;7.376;2022-12-29T05:24:48;9.30;99.90
56374;DHT22;58212;47.034;7.376;2022-12-29T05:27:16;9.30;99.90
56374;DHT22;58212;47.034;7.376;2022-12-29T05:29:49;9.30;99.90
56374;DHT22;58212;47.034;7.376;2022-12-29T05:32:16;9.20;99.90
56374;DHT22;58212;47.034;7.376;2022-12-29T05:34:43;9.20;99.90
56374;DHT22;58212;47.034;7.376;2022-12-29T05:37:11;9.20;99.90
56374;DHT22;58212;47.034;7.376;2022-12-29T05:39:41;9.20;99.90
56374;DHT22;58212;47.034;7.376;2022-12-29T05:42:09;9.30;99.90
56374;DHT22;58212;47.034;7.376;2022-12-29T05:44:57;9.20;99.90
56374;DHT22;58212;47.034;7.376;2022-12-29T05:47:44;9.20;99.90
56374;DHT22;58212;47.034;7.376;2022-12-29T05:50:47;9.20;99.90
56374;DHT22;58212;47.034;7.376;2022-12-29T05:53:16;9.20;99.90
56374;DHT22;58212;47.034;7.376;2022-12-29T05:55:44;9.10;99.90
56374;DHT22;58212;47.034;7.376;2022-12-29T05:58:13;9.20;99.90
56374;DHT22;58212;47.034;7.376;2022-12-29T06:00:42;9.20;99.90
56374;DHT22;58212;47.034;7.376;2022-12-29T06:03:10;9.10;99.90
56374;DHT22;58212;47.034;7.376;2022-12-29T06:05:37;9.20;99.90
56374;DHT22;58212;47.034;7.376;2022-12-29T06:08:05;9.20;99.90
56374;DHT22;58212;47.034;7.376;2022-12-29T06:10:34;9.10;99.90
56374;DHT22;58212;47.034;7.376;2022-12-29T06:13:04;9.00;99.90
56374;DHT22;58212;47.034;7.376;2022-12-29T06:15:35;9.10;99.90
56374;DHT22;58212;47.034;7.376;2022-12-29T06:18:06;9.10;99.90
56374;DHT22;58212;47.034;7.376;2022-12-29T06:20:33;9.10;99.90
56374;DHT22;58212;47.034;7.376;2022-12-29T06:23:03;9.10;99.90
56374;DHT22;58212;47.034;7.376;2022-12-29T06:25:31;9.10;99.90
56374;DHT22;58212;47.034;7.376;2022-12-29T06:27:59;9.10;99.90
56374;DHT22;58212;47.034;7.376;2022-12-29T06:30:27;9.30;99.90
56374;DHT22;58212;47.034;7.376;2022-12-29T06:32:55;9.10;99.90
56374;DHT22;58212;47.034;7.376;2022-12-29T06:35:25;9.10;99.90
56374;DHT22;58212;47.034;7.376;2022-12-29T06:37:52;9.10;99.90
56374;DHT22;58212;47.034;7.376;2022-12-29T06:40:20;9.20;99.90
56374;DHT22;58212;47.034;7.376;2022-12-29T06:43:25;9.10;99.90
56374;DHT22;58212;47.034;7.376;2022-12-29T06:46:15;9.30;99.90
56374;DHT22;58212;47.034;7.376;2022-12-29T06:48:42;9.20;99.90
56374;DHT22;58212;47.034;7.376;2022-12-29T06:51:11;9.30;99.90
56374;DHT22;58212;47.034;7.376;2022-12-29T06:53:39;9.30;99.90
56374;DHT22;58212;47.034;7.376;2022-12-29T06:56:06;9.30;99.90
56374;DHT22;58212;47.034;7.376;2022-12-29T06:58:35;9.30;99.90
56374;DHT22;58212;47.034;7.376;2022-12-29T07:01:02;9.20;99.90
56374;DHT22;58212;47.034;7.376;2022-12-29T07:03:29;9.20;99.90
56374;DHT22;58212;47.034;7.376;2022-12-29T07:05:56;9.30;99.90
56374;DHT22;58212;47.034;7.376;2022-12-29T07:08:25;9.30;99.90
56374;DHT22;58212;47.034;7.376;2022-12-29T07:10:52;9.20;99.90
56374;DHT22;58212;47.034;7.376;2022-12-29T07:13:19;9.20;99.90
56374;DHT22;58212;47.034;7.376;2022-12-29T07:15:46;9.30;99.90
56374;DHT22;58212;47.034;7.376;2022-12-29T07:18:14;9.20;99.90
56374;DHT22;58212;47.034;7.376;2022-12-29T07:20:41;9.10;99.90
56374;DHT22;58212;47.034;7.376;2022-12-29T07:23:12;9.10;99.90
56374;DHT22;58212;47.034;7.376;2022-12-29T07:26:04;9.10;99.90
56374;DHT22;58212;47.034;7.376;2022-12-29T07:28:38;9.10;99.90
56374;DHT22;58212;47.034;7.376;2022-12-29T07:31:05;9.20;99.90
56374;DHT22;58212;47.034;7.376;2022-12-29T07:33:32;9.00;99.90
56374;DHT22;58212;47.034;7.376;2022-12-29T07:35:59;8.90;99.90
56374;DHT22;58212;47.034;7.376;2022-12-29T07:38:27;8.90;99.90
56374;DHT22;58212;47.034;7.376;2022-12-29T07:40:57;8.90;99.90
56374;DHT22;58212;47.034;7.376;2022-12-29T07:43:26;8.90;99.90
56374;DHT22;58212;47.034;7.376;2022-12-29T07:46:28;8.90;99.90
56374;DHT22;58212;47.034;7.376;2022-12-29T07:48:55;8.90;99.90
56374;DHT22;58212;47.034;7.376;2022-12-29T07:51:23;8.90;99.90
56374;DHT22;58212;47.034;7.376;2022-12-29T07:53:50;8.90;99.90
56374;DHT22;58212;47.034;7.376;2022-12-29T07:56:17;8.90;99.90
56374;DHT22;58212;47.034;7.376;2022-12-29T07:58:45;8.90;99.90
56374;DHT22;58212;47.034;7.376;2022-12-29T08:01:12;9.00;99.90
56374;DHT22;58212;47.034;7.376;2022-12-29T08:03:39;9.10;99.90
56374;DHT22;58212;47.034;7.376;2022-12-29T08:06:09;9.10;99.90
56374;DHT22;58212;47.034;7.376;2022-12-29T08:08:36;9.10;99.90
56374;DHT22;58212;47.034;7.376;2022-12-29T08:11:04;9.10;99.90
56374;DHT22;58212;47.034;7.376;2022-12-29T08:13:31;9.00;99.90
56374;DHT22;58212;47.034;7.376;2022-12-29T08:16:00;9.10;99.90
56374;DHT22;58212;47.034;7.376;2022-12-29T08:18:29;9.10;99.90
56374;DHT22;58212;47.034;7.376;2022-12-29T08:21:01;9.10;99.90
56374;DHT22;58212;47.034;7.376;2022-12-29T08:23:28;9.20;99.90
56374;DHT22;58212;47.034;7.376;2022-12-29T08:25:57;9.20;99.90
56374;DHT22;58212;47.034;7.376;2022-12-29T08:28:24;9.20;99.90
56374;DHT22;58212;47.034;7.376;2022-12-29T08:30:52;9.10;99.90
56374;DHT22;58212;47.034;7.376;2022-12-29T08:33:23;9.10;99.90
56374;DHT22;58212;47.034;7.376;2022-12-29T08:35:51;9.10;99.90
56374;DHT22;58212;47.034;7.376;2022-12-29T08:38:18;9.20;99.90
56374;DHT22;58212;47.034;7.376;2022-12-29T08:40:45;9.20;99.90
56374;DHT22;58212;47.034;7.376;2022-12-29T08:43:16;9.30;99.90
56374;DHT22;58212;47.034;7.376;2022-12-29T08:45:43;9.40;99.90
56374;DHT22;58212;47.034;7.376;2022-12-29T08:48:10;9.60;99.90
56374;DHT22;58212;47.034;7.376;2022-12-29T08:50:38;9.60;99.90
56374;DHT22;58212;47.034;7.376;2022-12-29T08:53:05;9.60;99.90
56374;DHT22;58212;47.034;7.376;2022-12-29T08:55:32;9.60;99.90
56374;DHT22;58212;47.034;7.376;2022-12-29T08:58:00;9.70;99.90
56374;DHT22;58212;47.034;7.376;2022-12-29T09:00:27;9.70;99.90
56374;DHT22;58212;47.034;7.376;2022-12-29T09:02:57;9.60;99.90
56374;DHT22;58212;47.034;7.376;2022-12-29T09:05:26;9.70;99.90
56374;DHT22;58212;47.034;7.376;2022-12-29T09:07:58;9.70;99.90
56374;DHT22;58212;47.034;7.376;2022-12-29T09:10:25;9.60;99.90
56374;DHT22;58212;47.034;7.376;2022-12-29T09:12:53;9.70;99.90
56374;DHT22;58212;47.034;7.376;2022-12-29T09:15:20;9.70;99.90
56374;DHT22;58212;47.034;7.376;2022-12-29T09:17:47;9.70;99.90
56374;DHT22;58212;47.034;7.376;2022-12-29T09:20:16;9.70;99.90
56374;DHT22;58212;47.034;7.376;2022-12-29T09:22:45;9.70;99.90
56374;DHT22;58212;47.034;7.376;2022-12-29T09:25:15;9.80;99.90
56374;DHT22;58212;47.034;7.376;2022-12-29T09:27:42;9.90;99.90
56374;DHT22;58212;47.034;7.376;2022-12-29T09:30:12;9.90;99.90
56374;DHT22;58212;47.034;7.376;2022-12-29T09:32:40;9.90;99.90
56374;DHT22;58212;47.034;7.376;2022-12-29T09:35:08;9.80;99.90
56374;DHT22;58212;47.034;7.376;2022-12-29T09:37:35;9.70;99.90
56374;DHT22;58212;47.034;7.376;2022-12-29T09:40:03;9.70;99.90
56374;DHT22;58212;47.034;7.376;2022-12-29T09:42:37;9.60;99.90
56374;DHT22;58212;47.034;7.376;2022-12-29T09:45:12;9.70;99.90
56374;DHT22;58212;47.034;7.376;2022-12-29T09:47:41;9.70;99.90
56374;DHT22;58212;47.034;7.376;2022-12-29T09:50:14;9.60;99.90
56374;DHT22;58212;47.034;7.376;2022-12-29T09:52:47;9.60;99.90
56374;DHT22;58212;47.034;7.376;2022-12-29T09:55:20;9.60;99.90
56374;DHT22;58212;47.034;7.376;2022-12-29T09:57:57;9.70;99.90
56374;DHT22;58212;47.034;7.376;2022-12-29T10:00:43;9.70;99.90
56374;DHT22;58212;47.034;7.376;2022-12-29T10:03:17;9.80;99.90
56374;DHT22;58212;47.034;7.376;2022-12-29T10:05:48;10.00;99.90
56374;DHT22;58212;47.034;7.376;2022-12-29T10:08:26;10.10;99.90
56374;DHT22;58212;47.034;7.376;2022-12-29T10:10:59;10.30;99.90
56374;DHT22;58212;47.034;7.376;2022-12-29T10:13:42;10.30;99.90
56374;DHT22;58212;47.034;7.376;2022-12-29T10:16:15;10.20;99.90
56374;DHT22;58212;47.034;7.376;2022-12-29T10:18:54;10.20;99.90
56374;DHT22;58212;47.034;7.376;2022-12-29T10:21:40;10.20;99.90
56374;DHT22;58212;47.034;7.376;2022-12-29T10:24:13;10.20;99.90
56374;DHT22;58212;47.034;7.376;2022-12-29T10:26:42;10.10;99.90
56374;DHT22;58212;47.034;7.376;2022-12-29T10:29:16;10.00;99.90
56374;DHT22;58212;47.034;7.376;2022-12-29T10:31:50;9.90;99.90
56374;DHT22;58212;47.034;7.376;2022-12-29T10:34:27;9.90;99.90
56374;DHT22;58212;47.034;7.376;2022-12-29T10:37:02;9.80;99.90
56374;DHT22;58212;47.034;7.376;2022-12-29T10:39:38;9.70;99.90
56374;DHT22;58212;47.034;7.376;2022-12-29T10:42:13;9.70;99.90
56374;DHT22;58212;47.034;7.376;2022-12-29T10:44:42;9.70;99.90
56374;DHT22;58212;47.034;7.376;2022-12-29T10:47:13;9.60;99.90
56374;DHT22;58212;47.034;7.376;2022-12-29T10:49:45;9.60;99.90
56374;DHT22;58212;47.034;7.376;2022-12-29T10:52:16;9.50;99.90
56374;DHT22;58212;47.034;7.376;2022-12-29T10:55:12;9.70;99.90
56374;DHT22;58212;47.034;7.376;2022-12-29T10:57:58;9.80;99.90
56374;DHT22;58212;47.034;7.376;2022-12-29T11:00:33;10.00;99.90
56374;DHT22;58212;47.034;7.376;2022-12-29T11:03:44;10.10;99.90
56374;DHT22;58212;47.034;7.376;2022-12-29T11:06:24;10.30;99.90
56374;DHT22;58212;47.034;7.376;2022-12-29T11:08:57;10.30;99.90
56374;DHT22;58212;47.034;7.376;2022-12-29T11:11:27;10.40;99.90
56374;DHT22;58212;47.034;7.376;2022-12-29T11:14:21;10.40;99.90
56374;DHT22;58212;47.034;7.376;2022-12-29T11:17:19;10.50;99.90
56374;DHT22;58212;47.034;7.376;2022-12-29T11:20:29;10.40;99.90
56374;DHT22;58212;47.034;7.376;2022-12-29T11:22:58;10.50;99.90
56374;DHT22;58212;47.034;7.376;2022-12-29T11:25:26;10.60;99.90
56374;DHT22;58212;47.034;7.376;2022-12-29T11:27:56;10.60;99.90
56374;DHT22;58212;47.034;7.376;2022-12-29T11:30:27;10.60;99.90
56374;DHT22;58212;47.034;7.376;2022-12-29T11:32:56;10.60;99.90
56374;DHT22;58212;47.034;7.376;2022-12-29T11:35:48;10.60;99.90
56374;DHT22;58212;47.034;7.376;2022-12-29T11:38:19;10.50;99.90
56374;DHT22;58212;47.034;7.376;2022-12-29T11:40:48;10.60;99.90
56374;DHT22;58212;47.034;7.376;2022-12-29T11:43:23;10.60;99.90
56374;DHT22;58212;47.034;7.376;2022-12-29T11:45:57;10.60;99.90
56374;DHT22;58212;47.034;7.376;2022-12-29T11:48:29;10.70;99.90
56374;DHT22;58212;47.034;7.376;2022-12-29T11:50:59;10.60;99.90
56374;DHT22;58212;47.034;7.376;2022-12-29T11:53:30;10.60;99.90
56374;DHT22;58212;47.034;7.376;2022-12-29T11:56:06;10.70;99.90
56374;DHT22;58212;47.034;7.376;2022-12-29T11:59:36;10.70;99.90
56374;DHT22;58212;47.034;7.376;2022-12-29T12:05:37;10.70;99.90
56374;DHT22;58212;47.034;7.376;2022-12-29T12:08:11;10.80;99.90
56374;DHT22;58212;47.034;7.376;2022-12-29T12:10:44;10.80;99.90
56374;DHT22;58212;47.034;7.376;2022-12-29T12:13:20;10.80;99.90
56374;DHT22;58212;47.034;7.376;2022-12-29T12:15:56;10.80;99.90
56374;DHT22;58212;47.034;7.376;2022-12-29T12:18:34;10.70;99.90
56374;DHT22;58212;47.034;7.376;2022-12-29T12:21:13;10.70;99.90
56374;DHT22;58212;47.034;7.376;2022-12-29T12:24:00;10.70;99.90
56374;DHT22;58212;47.034;7.376;2022-12-29T12:26:33;10.60;99.90
56374;DHT22;58212;47.034;7.376;2022-12-29T12:29:05;10.60;99.90
56374;DHT22;58212;47.034;7.376;2022-12-29T12:31:43;10.60;99.90
56374;DHT22;58212;47.034;7.376;2022-12-29T12:34:17;10.50;99.90
56374;DHT22;58212;47.034;7.376;2022-12-29T12:37:07;10.30;99.90
56374;DHT22;58212;47.034;7.376;2022-12-29T12:39:49;10.20;99.90
56374;DHT22;58212;47.034;7.376;2022-12-29T12:42:52;10.00;99.90
56374;DHT22;58212;47.034;7.376;2022-12-29T12:45:35;10.10;99.90
56374;DHT22;58212;47.034;7.376;2022-12-29T12:48:24;10.20;99.90
56374;DHT22;58212;47.034;7.376;2022-12-29T12:51:01;10.10;99.90
56374;DHT22;58212;47.034;7.376;2022-12-29T12:53:53;10.00;99.90
56374;DHT22;58212;47.034;7.376;2022-12-29T12:56:38;10.00;99.90
56374;DHT22;58212;47.034;7.376;2022-12-29T12:59:23;10.20;99.90
56374;DHT22;58212;47.034;7.376;2022-12-29T13:02:01;10.10;99.90
56374;DHT22;58212;47.034;7.376;2022-12-29T13:04:46;10.20;99.90
56374;DHT22;58212;47.034;7.376;2022-12-29T13:07:23;10.20;99.90
56374;DHT22;58212;47.034;7.376;2022-12-29T13:10:12;10.20;99.90
56374;DHT22;58212;47.034;7.376;2022-12-29T13:12:47;10.20;99.90
56374;DHT22;58212;47.034;7.376;2022-12-29T13:15:26;10.40;99.90
56374;DHT22;58212;47.034;7.376;2022-12-29T13:18:05;10.40;99.90
56374;DHT22;58212;47.034;7.376;2022-12-29T13:20:43;10.40;99.90
56374;DHT22;58212;47.034;7.376;2022-12-29T13:23:19;10.40;99.90
56374;DHT22;58212;47.034;7.376;2022-12-29T13:25:59;10.40;99.90
56374;DHT22;58212;47.034;7.376;2022-12-29T13:39:01;10.30;99.90
56374;DHT22;58212;47.034;7.376;2022-12-29T13:41:34;10.30;99.90
56374;DHT22;58212;47.034;7.376;2022-12-29T13:44:04;10.50;99.90
56374;DHT22;58212;47.034;7.376;2022-12-29T13:46:37;10.40;99.90
56374;DHT22;58212;47.034;7.376;2022-12-29T13:49:08;10.40;99.90
56374;DHT22;58212;47.034;7.376;2022-12-29T13:51:41;10.30;99.90
56374;DHT22;58212;47.034;7.376;2022-12-29T13:54:18;10.50;99.90
56374;DHT22;58212;47.034;7.376;2022-12-29T13:56:58;10.50;99.90
56374;DHT22;58212;47.034;7.376;2022-12-29T13:59:41;10.50;99.90
56374;DHT22;58212;47.034;7.376;2022-12-29T14:02:21;10.50;99.90
56374;DHT22;58212;47.034;7.376;2022-12-29T14:05:00;10.50;99.90
56374;DHT22;58212;47.034;7.376;2022-12-29T14:07:29;10.60;99.90
56374;DHT22;58212;47.034;7.376;2022-12-29T14:10:02;10.60;99.90
56374;DHT22;58212;47.034;7.376;2022-12-29T14:12:36;10.60;99.90
56374;DHT22;58212;47.034;7.376;2022-12-29T14:15:15;10.60;99.90
56374;DHT22;58212;47.034;7.376;2022-12-29T14:18:10;10.50;99.90
56374;DHT22;58212;47.034;7.376;2022-12-29T14:20:50;10.60;99.90
56374;DHT22;58212;47.034;7.376;2022-12-29T14:23:28;10.60;99.90
56374;DHT22;58212;47.034;7.376;2022-12-29T14:25:59;10.50;99.90
56374;DHT22;58212;47.034;7.376;2022-12-29T14:28:53;10.50;99.90
56374;DHT22;58212;47.034;7.376;2022-12-29T14:31:34;10.50;99.90
56374;DHT22;58212;47.034;7.376;2022-12-29T14:34:28;10.50;99.90
56374;DHT22;58212;47.034;7.376;2022-12-29T14:36:58;10.40;99.90
56374;DHT22;58212;47.034;7.376;2022-12-29T14:39:31;10.40;99.90
56374;DHT22;58212;47.034;7.376;2022-12-29T14:42:00;10.30;99.90
56374;DHT22;58212;47.034;7.376;2022-12-29T14:44:28;10.10;99.90
56374;DHT22;58212;47.034;7.376;2022-12-29T14:46:58;10.10;99.90
56374;DHT22;58212;47.034;7.376;2022-12-29T14:49:28;10.10;99.90
56374;DHT22;58212;47.034;7.376;2022-12-29T14:52:06;9.90;99.90
56374;DHT22;58212;47.034;7.376;2022-12-29T14:54:45;9.80;99.90
56374;DHT22;58212;47.034;7.376;2022-12-29T14:57:34;9.60;99.90
56374;DHT22;58212;47.034;7.376;2022-12-29T15:00:12;9.70;99.90
56374;DHT22;58212;47.034;7.376;2022-12-29T15:02:45;9.50;99.90
56374;DHT22;58212;47.034;7.376;2022-12-29T15:05:27;9.50;99.90
56374;DHT22;58212;47.034;7.376;2022-12-29T15:07:56;9.50;99.90
56374;DHT22;58212;47.034;7.376;2022-12-29T15:10:24;9.50;99.90
56374;DHT22;58212;47.034;7.376;2022-12-29T15:12:53;9.40;99.90
56374;DHT22;58212;47.034;7.376;2022-12-29T15:15:24;9.40;99.90
56374;DHT22;58212;47.034;7.376;2022-12-29T15:17:52;9.50;99.90
56374;DHT22;58212;47.034;7.376;2022-12-29T15:20:24;9.50;99.90
56374;DHT22;58212;47.034;7.376;2022-12-29T15:22:55;9.40;99.90
56374;DHT22;58212;47.034;7.376;2022-12-29T15:25:23;9.30;99.90
56374;DHT22;58212;47.034;7.376;2022-12-29T15:27:52;9.30;99.90
56374;DHT22;58212;47.034;7.376;2022-12-29T15:30:22;9.30;99.90
56374;DHT22;58212;47.034;7.376;2022-12-29T15:32:50;9.30;99.90
56374;DHT22;58212;47.034;7.376;2022-12-29T15:35:30;9.30;99.90
56374;DHT22;58212;47.034;7.376;2022-12-29T15:37:58;9.30;99.90
56374;DHT22;58212;47.034;7.376;2022-12-29T15:40:28;9.20;99.90
56374;DHT22;58212;47.034;7.376;2022-12-29T15:43:25;9.30;99.90
56374;DHT22;58212;47.034;7.376;2022-12-29T15:46:00;9.30;99.90
56374;DHT22;58212;47.034;7.376;2022-12-29T15:48:28;9.20;99.90
56374;DHT22;58212;47.034;7.376;2022-12-29T15:50:56;9.30;99.90
56374;DHT22;58212;47.034;7.376;2022-12-29T15:53:27;9.30;99.90
56374;DHT22;58212;47.034;7.376;2022-12-29T15:55:57;9.40;99.90
56374;DHT22;58212;47.034;7.376;2022-12-29T15:58:27;9.30;99.90
56374;DHT22;58212;47.034;7.376;2022-12-29T16:00:56;9.20;99.90
56374;DHT22;58212;47.034;7.376;2022-12-29T16:03:32;9.20;99.90
56374;DHT22;58212;47.034;7.376;2022-12-29T16:06:08;9.30;99.90
56374;DHT22;58212;47.034;7.376;2022-12-29T16:08:37;9.10;99.90
56374;DHT22;58212;47.034;7.376;2022-12-29T16:11:18;9.10;99.90
56374;DHT22;58212;47.034;7.376;2022-12-29T16:13:50;9.10;99.90
56374;DHT22;58212;47.034;7.376;2022-12-29T16:16:22;8.90;99.90
56374;DHT22;58212;47.034;7.376;2022-12-29T16:18:56;9.00;99.90
56374;DHT22;58212;47.034;7.376;2022-12-29T16:21:26;9.00;99.90
56374;DHT22;58212;47.034;7.376;2022-12-29T16:24:01;9.10;99.90
56374;DHT22;58212;47.034;7.376;2022-12-29T16:26:30;9.30;99.90
56374;DHT22;58212;47.034;7.376;2022-12-29T16:28:58;9.20;99.90
56374;DHT22;58212;47.034;7.376;2022-12-29T16:31:33;9.10;99.90
56374;DHT22;58212;47.034;7.376;2022-12-29T16:34:13;8.90;99.90
56374;DHT22;58212;47.034;7.376;2022-12-29T16:36:56;9.00;99.90
56374;DHT22;58212;47.034;7.376;2022-12-29T16:39:34;9.10;99.90
56374;DHT22;58212;47.034;7.376;2022-12-29T16:42:45;9.10;99.90
56374;DHT22;58212;47.034;7.376;2022-12-29T16:48:19;9.10;99.90
56374;DHT22;58212;47.034;7.376;2022-12-29T16:50:49;9.10;99.90